Annadale, South Africa
Current Conditions -  °F | °C
As of 10:00 PM on Friday 28 Nov 2014 (Local Time) from FAPP Reporting Station
NA  
Wind Chill: 68°   Ceiling: NA
Heat Index: 68°   Visibility: NA
Dew Point: 55°   Wind: 10mph
Humidity: 64%   Direction: 330°NNW
Pressure: 30.09"   Gusts: NA
Location:  23.88°S, 29.45°E
Report Text: FAPP 282000Z AUTO 33009KT //// // ////// 20/13 Q1019
Loading
Personal Weather Stations






























Interactive Weather Map New forecast layout! Learn more

10-Day Weather Forecast

Advertisements
Track Severe Weather on mobile